createdAt,value
2019-03-26T00:02:08.155Z,6.40
2019-03-26T00:04:36.748Z,6.42
2019-03-26T00:07:05.462Z,6.54
2019-03-26T00:09:34.179Z,6.65
2019-03-26T00:12:02.898Z,6.59
2019-03-26T00:14:31.591Z,6.53
2019-03-26T00:17:00.315Z,6.49
2019-03-26T00:19:28.999Z,6.51
2019-03-26T00:21:57.751Z,6.48
2019-03-26T00:24:26.455Z,6.49
2019-03-26T00:26:55.099Z,6.49
2019-03-26T00:29:23.688Z,6.46
2019-03-26T00:31:52.258Z,6.41
2019-03-26T00:34:20.990Z,6.41
2019-03-26T00:36:49.623Z,6.41
2019-03-26T00:39:18.307Z,6.35
2019-03-26T00:41:46.994Z,6.13
2019-03-26T00:44:15.719Z,6.02
2019-03-26T00:46:44.355Z,6.03
2019-03-26T00:49:12.968Z,5.93
2019-03-26T00:51:41.679Z,5.97
2019-03-26T00:54:10.339Z,5.93
2019-03-26T00:56:39.093Z,5.89
2019-03-26T00:59:07.853Z,5.84
2019-03-26T01:01:36.569Z,5.81
2019-03-26T01:04:05.405Z,6.05
2019-03-26T01:06:34.157Z,6.11
2019-03-26T01:09:02.858Z,6.27
2019-03-26T01:11:31.424Z,6.33
2019-03-26T01:14:00.041Z,6.35
2019-03-26T01:16:28.755Z,6.29
2019-03-26T01:18:57.498Z,6.34
2019-03-26T01:21:26.073Z,6.35
2019-03-26T01:23:54.840Z,6.37
2019-03-26T01:26:26.172Z,6.36
2019-03-26T01:28:54.984Z,6.42
2019-03-26T01:31:23.697Z,6.45
2019-03-26T01:33:52.395Z,6.37
2019-03-26T01:36:21.152Z,6.32
2019-03-26T01:38:49.790Z,6.37
2019-03-26T01:41:18.426Z,6.30
2019-03-26T01:43:47.278Z,6.24
2019-03-26T01:46:16.002Z,6.10
2019-03-26T01:48:44.691Z,5.96
2019-03-26T01:51:13.408Z,6.02
2019-03-26T01:53:42.027Z,5.81
2019-03-26T01:56:10.780Z,5.73
2019-03-26T01:58:39.441Z,5.71
2019-03-26T02:01:08.200Z,5.64
2019-03-26T02:03:36.772Z,5.42
2019-03-26T02:06:05.519Z,5.36
2019-03-26T02:08:34.170Z,5.41
2019-03-26T02:11:02.755Z,5.48
2019-03-26T02:13:31.474Z,5.26
2019-03-26T02:16:00.390Z,5.18
2019-03-26T02:18:28.951Z,5.18
2019-03-26T02:20:57.853Z,5.44
2019-03-26T02:23:26.416Z,5.56
2019-03-26T02:25:55.019Z,5.74
2019-03-26T02:28:23.645Z,5.86
2019-03-26T02:30:53.772Z,5.90
2019-03-26T02:33:22.447Z,5.95
2019-03-26T02:35:51.018Z,5.99
2019-03-26T02:38:19.596Z,5.96
2019-03-26T02:40:48.262Z,5.95
2019-03-26T02:43:16.852Z,5.95
2019-03-26T02:45:45.590Z,5.97
2019-03-26T02:48:14.220Z,5.91
2019-03-26T02:50:42.897Z,5.88
2019-03-26T02:53:11.519Z,5.88
2019-03-26T02:55:40.190Z,5.87
2019-03-26T02:58:08.812Z,5.79
2019-03-26T03:00:37.472Z,5.77
2019-03-26T03:03:06.676Z,5.83
2019-03-26T03:05:36.285Z,5.77
2019-03-26T03:08:05.093Z,5.67
2019-03-26T03:10:33.721Z,5.76
2019-03-26T03:13:05.342Z,5.77
2019-03-26T03:15:33.901Z,5.73
2019-03-26T03:18:02.478Z,5.76
2019-03-26T03:20:31.041Z,5.76
2019-03-26T03:22:59.718Z,5.76
2019-03-26T03:25:28.344Z,5.72
2019-03-26T03:27:56.983Z,5.67
2019-03-26T03:30:25.619Z,5.60
2019-03-26T03:32:54.117Z,5.58
2019-03-26T03:35:22.733Z,5.61
2019-03-26T03:37:51.341Z,5.62
2019-03-26T03:40:19.935Z,5.62
2019-03-26T03:42:48.566Z,5.61
2019-03-26T03:45:21.493Z,5.43
2019-03-26T03:47:50.927Z,5.46
2019-03-26T03:50:19.560Z,5.49
2019-03-26T03:52:49.196Z,5.45
2019-03-26T03:55:18.274Z,5.40
2019-03-26T03:57:52.752Z,5.30
2019-03-26T04:00:34.721Z,5.27
2019-03-26T04:03:04.688Z,5.28
2019-03-26T04:05:33.653Z,5.27
2019-03-26T04:08:02.285Z,5.24
2019-03-26T04:10:30.967Z,5.22
2019-03-26T04:13:00.833Z,5.18
2019-03-26T04:15:29.328Z,5.16
2019-03-26T04:17:57.899Z,5.11
2019-03-26T04:20:26.528Z,5.04
2019-03-26T04:22:55.207Z,4.99
2019-03-26T04:25:23.842Z,4.94
2019-03-26T04:27:53.711Z,4.94
2019-03-26T04:30:28.144Z,4.94
2019-03-26T04:32:58.115Z,4.99
2019-03-26T04:35:26.741Z,5.09
2019-03-26T04:37:55.242Z,5.19
2019-03-26T04:40:23.841Z,5.31
2019-03-26T04:42:52.344Z,5.48
2019-03-26T04:45:20.953Z,5.71
2019-03-26T04:47:49.504Z,5.94
2019-03-26T04:50:18.136Z,6.27
2019-03-26T04:52:46.811Z,6.52
2019-03-26T04:55:15.442Z,6.77
2019-03-26T04:57:44.029Z,7.01
2019-03-26T05:00:13.009Z,7.20
2019-03-26T05:02:41.646Z,7.38
2019-03-26T05:05:13.216Z,7.38
2019-03-26T05:07:41.840Z,7.43
2019-03-26T05:10:11.135Z,7.53
2019-03-26T05:12:39.611Z,7.48
2019-03-26T05:15:08.681Z,7.53
2019-03-26T05:17:37.312Z,7.59
2019-03-26T05:20:07.585Z,7.71
2019-03-26T05:22:36.719Z,7.79
2019-03-26T05:25:07.159Z,7.86
2019-03-26T05:27:45.242Z,7.88
2019-03-26T05:30:07.838Z,8.00
2019-03-26T05:32:36.482Z,8.12
2019-03-26T05:35:05.718Z,8.23
2019-03-26T05:37:34.322Z,8.34
2019-03-26T05:40:03.020Z,8.40
2019-03-26T05:42:31.573Z,8.54
2019-03-26T05:45:00.376Z,8.68
2019-03-26T05:47:28.893Z,8.89
2019-03-26T05:49:57.494Z,9.12
2019-03-26T05:52:26.067Z,9.45
2019-03-26T05:54:54.666Z,9.71
2019-03-26T05:57:23.950Z,9.97
2019-03-26T05:59:53.074Z,10.27
2019-03-26T06:02:21.846Z,10.57
2019-03-26T06:04:50.738Z,10.93
2019-03-26T06:07:19.485Z,11.33
2019-03-26T06:09:48.316Z,11.71
2019-03-26T06:12:19.957Z,12.01
2019-03-26T06:14:49.404Z,12.17
2019-03-26T06:17:18.390Z,12.22
2019-03-26T06:19:47.068Z,12.31
2019-03-26T06:22:15.922Z,12.50
2019-03-26T06:24:47.529Z,12.82
2019-03-26T06:27:23.797Z,13.10
2019-03-26T06:29:54.313Z,13.33
2019-03-26T06:32:24.397Z,13.44
2019-03-26T06:34:53.384Z,13.36
2019-03-26T06:37:23.392Z,13.35
2019-03-26T06:39:58.372Z,13.40
2019-03-26T06:42:27.712Z,13.49
2019-03-26T06:44:56.707Z,13.61
2019-03-26T06:47:25.310Z,13.86
2019-03-26T06:49:53.994Z,14.02
2019-03-26T06:52:22.686Z,14.55
2019-03-26T06:54:54.426Z,15.42
2019-03-26T06:57:34.860Z,16.01
2019-03-26T06:59:54.440Z,16.44
2019-03-26T07:02:23.183Z,16.75
2019-03-26T07:04:51.880Z,16.47
2019-03-26T07:07:30.868Z,16.41
2019-03-26T07:09:52.406Z,16.14
2019-03-26T07:12:21.077Z,16.10
2019-03-26T07:14:49.991Z,15.71
2019-03-26T07:17:18.796Z,15.45
2019-03-26T07:19:47.547Z,15.62
2019-03-26T07:22:17.692Z,16.19
2019-03-26T07:24:46.402Z,16.74
2019-03-26T07:27:15.187Z,16.88
2019-03-26T07:29:43.875Z,17.15
2019-03-26T07:32:12.587Z,17.52
2019-03-26T07:34:41.401Z,17.33
2019-03-26T07:37:10.237Z,16.98
2019-03-26T07:39:40.696Z,16.98
2019-03-26T07:42:09.251Z,17.82
2019-03-26T07:44:37.934Z,18.35
2019-03-26T07:47:06.677Z,18.62
2019-03-26T07:49:38.174Z,18.96
2019-03-26T07:52:06.936Z,19.09
2019-03-26T07:54:35.648Z,19.56
2019-03-26T07:57:04.441Z,19.79
2019-03-26T07:59:33.193Z,19.71
2019-03-26T08:02:01.914Z,18.95
2019-03-26T08:04:31.549Z,18.60
2019-03-26T08:07:00.125Z,18.97
2019-03-26T08:09:31.634Z,19.63
2019-03-26T08:11:59.201Z,20.16
2019-03-26T08:14:32.345Z,20.31
2019-03-26T08:17:01.553Z,20.70
2019-03-26T08:19:33.460Z,20.69
2019-03-26T08:22:04.834Z,20.48
2019-03-26T08:24:37.771Z,20.76
2019-03-26T08:27:08.478Z,20.04
2019-03-26T08:29:44.620Z,19.57
2019-03-26T08:32:13.115Z,18.76
2019-03-26T08:34:46.796Z,18.38
2019-03-26T08:37:22.180Z,18.54
2019-03-26T08:39:51.809Z,19.42
2019-03-26T08:42:27.168Z,20.55
2019-03-26T08:44:53.650Z,21.40
2019-03-26T08:47:32.004Z,20.63
2019-03-26T08:50:08.608Z,19.94
2019-03-26T08:52:43.286Z,19.87
2019-03-26T08:55:15.932Z,21.56
2019-03-26T08:57:49.576Z,22.71
2019-03-26T09:00:20.277Z,23.84
2019-03-26T09:02:50.734Z,23.98
2019-03-26T09:05:26.054Z,24.29
2019-03-26T09:08:24.505Z,23.07
2019-03-26T09:10:51.705Z,22.28
2019-03-26T09:13:15.835Z,21.11
2019-03-26T09:15:53.588Z,20.45
2019-03-26T09:18:26.023Z,20.35
2019-03-26T09:20:56.306Z,19.93
2019-03-26T09:23:25.126Z,19.88
2019-03-26T09:25:55.290Z,20.09
2019-03-26T09:28:25.989Z,20.69
2019-03-26T09:30:56.098Z,21.42
2019-03-26T09:33:27.215Z,21.76
2019-03-26T09:36:00.017Z,22.47
2019-03-26T09:38:38.766Z,22.87
2019-03-26T09:41:00.113Z,23.59
2019-03-26T09:43:32.928Z,24.30
2019-03-26T09:46:03.568Z,24.93
2019-03-26T09:48:38.559Z,24.05
2019-03-26T09:51:10.659Z,23.40
2019-03-26T09:53:37.901Z,22.47
2019-03-26T09:56:06.668Z,21.30
2019-03-26T09:58:35.477Z,20.91
2019-03-26T10:01:04.150Z,20.54
2019-03-26T10:03:32.791Z,20.70
2019-03-26T10:06:01.462Z,21.13
2019-03-26T10:08:30.132Z,21.26
2019-03-26T10:10:58.758Z,21.39
2019-03-26T10:13:27.430Z,21.94
2019-03-26T10:15:55.991Z,22.75
2019-03-26T10:18:24.713Z,24.00
2019-03-26T10:20:53.384Z,25.13
2019-03-26T10:23:21.982Z,24.62
2019-03-26T10:25:50.614Z,23.37
2019-03-26T10:28:19.298Z,23.05
2019-03-26T10:30:47.858Z,22.34
2019-03-26T10:33:16.497Z,21.86
2019-03-26T10:35:45.087Z,21.66
2019-03-26T10:38:13.763Z,22.00
2019-03-26T10:40:42.532Z,22.96
2019-03-26T10:43:14.083Z,24.23
2019-03-26T10:45:44.470Z,25.08
2019-03-26T10:48:13.084Z,25.96
2019-03-26T10:50:43.340Z,27.36
2019-03-26T10:53:12.137Z,28.55
2019-03-26T10:55:40.884Z,29.37
2019-03-26T10:58:09.638Z,28.82
2019-03-26T11:00:38.630Z,28.32
2019-03-26T11:03:07.278Z,27.73
2019-03-26T11:05:35.954Z,27.67
2019-03-26T11:08:18.425Z,28.25
2019-03-26T11:10:48.595Z,27.59
2019-03-26T11:13:17.159Z,26.81
2019-03-26T11:15:49.696Z,26.47
2019-03-26T11:18:23.020Z,26.48
2019-03-26T11:21:02.488Z,26.25
2019-03-26T11:23:22.440Z,25.95
2019-03-26T11:25:52.743Z,25.89
2019-03-26T11:28:23.130Z,25.28
2019-03-26T11:30:52.114Z,24.36
2019-03-26T11:33:20.835Z,23.67
2019-03-26T11:35:50.086Z,22.96
2019-03-26T11:38:20.255Z,21.96
2019-03-26T11:43:39.848Z,21.29
2019-03-26T11:46:10.140Z,21.10
2019-03-26T11:48:39.227Z,21.10
2019-03-26T11:51:08.248Z,21.18
2019-03-26T11:53:37.193Z,20.59
2019-03-26T11:56:06.121Z,20.51
2019-03-26T11:58:37.563Z,20.09
2019-03-26T12:01:06.252Z,19.70
2019-03-26T12:03:34.959Z,19.51
2019-03-26T12:06:03.565Z,19.26
2019-03-26T12:08:32.254Z,19.10
2019-03-26T12:11:03.947Z,18.82
2019-03-26T12:13:34.384Z,18.69
2019-03-26T12:16:08.876Z,18.52
2019-03-26T12:18:38.911Z,18.31
2019-03-26T12:21:10.781Z,18.29
2019-03-26T12:23:45.964Z,18.20
2019-03-26T12:26:14.776Z,18.23
2019-03-26T12:28:43.464Z,18.07
2019-03-26T12:31:12.213Z,18.06
2019-03-26T12:33:41.013Z,17.85
2019-03-26T12:36:09.726Z,17.81
2019-03-26T12:38:40.202Z,17.74
2019-03-26T12:41:08.995Z,17.68
2019-03-26T12:43:37.713Z,17.76
2019-03-26T12:46:06.492Z,17.72
2019-03-26T12:48:35.215Z,17.69
2019-03-26T12:51:03.978Z,17.59
2019-03-26T12:53:32.534Z,17.42
2019-03-26T12:56:02.397Z,17.14
2019-03-26T12:58:36.554Z,16.86
2019-03-26T13:01:05.887Z,16.71
2019-03-26T13:03:34.769Z,16.71
2019-03-26T13:06:03.437Z,16.52
2019-03-26T13:08:32.142Z,16.52
2019-03-26T13:11:00.893Z,16.41
2019-03-26T13:13:32.223Z,16.44
2019-03-26T13:16:04.153Z,16.44
2019-03-26T13:18:34.638Z,16.37
2019-03-26T13:21:04.279Z,16.37
2019-03-26T13:23:35.070Z,16.29
2019-03-26T13:26:06.252Z,16.29
2019-03-26T13:28:36.621Z,16.25
2019-03-26T13:31:07.870Z,16.23
2019-03-26T13:33:36.987Z,16.00
2019-03-26T13:36:06.542Z,15.92
2019-03-26T13:38:38.239Z,15.71
2019-03-26T13:41:07.010Z,15.71
2019-03-26T13:43:38.306Z,15.45
2019-03-26T13:46:11.576Z,15.32
2019-03-26T13:48:40.494Z,15.30
2019-03-26T13:51:09.451Z,15.27
2019-03-26T13:53:38.260Z,15.28
2019-03-26T13:56:08.954Z,15.38
2019-03-26T13:58:37.722Z,15.36
2019-03-26T14:01:06.437Z,15.21
2019-03-26T14:03:40.935Z,15.03
2019-03-26T14:06:10.319Z,14.85
2019-03-26T14:08:38.998Z,14.26
2019-03-26T14:11:12.225Z,13.77
2019-03-26T14:13:41.197Z,13.39
2019-03-26T14:16:09.819Z,13.09
2019-03-26T14:18:38.597Z,12.73
2019-03-26T14:21:07.345Z,12.34
2019-03-26T14:23:36.001Z,11.98
2019-03-26T14:26:04.860Z,11.59
2019-03-26T14:28:36.325Z,11.27
2019-03-26T14:31:04.956Z,11.07
2019-03-26T14:33:33.632Z,10.88
2019-03-26T14:36:02.278Z,10.75
2019-03-26T14:38:33.782Z,10.71
2019-03-26T14:41:02.468Z,10.66
2019-03-26T14:43:31.099Z,10.54
2019-03-26T14:45:59.655Z,10.48
2019-03-26T14:48:28.273Z,10.42
2019-03-26T14:50:56.912Z,10.39
2019-03-26T14:53:25.479Z,10.40
2019-03-26T14:55:54.117Z,10.37
2019-03-26T14:58:22.607Z,10.38
2019-03-26T15:00:51.245Z,10.43
2019-03-26T15:03:19.925Z,10.43
2019-03-26T15:05:48.484Z,10.34
2019-03-26T15:08:17.225Z,10.25
2019-03-26T15:10:45.863Z,10.22
2019-03-26T15:13:17.266Z,10.17
2019-03-26T15:15:45.843Z,10.20
2019-03-26T15:18:14.534Z,10.18
2019-03-26T15:20:43.171Z,10.09
2019-03-26T15:23:11.822Z,10.05
2019-03-26T15:25:40.447Z,9.98
2019-03-26T15:28:11.546Z,9.97
2019-03-26T15:30:39.408Z,9.89
2019-03-26T15:33:08.041Z,9.81
2019-03-26T15:35:36.674Z,9.76
2019-03-26T15:38:05.351Z,9.73
2019-03-26T15:40:34.030Z,9.65
2019-03-26T15:43:02.745Z,9.64
2019-03-26T15:45:31.267Z,9.68
2019-03-26T15:47:59.943Z,9.68
2019-03-26T15:50:40.324Z,9.68
2019-03-26T15:53:09.412Z,9.64
2019-03-26T15:55:38.054Z,9.65
2019-03-26T15:58:06.718Z,9.71
2019-03-26T16:00:35.410Z,9.75
2019-03-26T16:03:04.085Z,9.63
2019-03-26T16:05:32.722Z,9.59
2019-03-26T16:08:01.337Z,9.57
2019-03-26T16:10:30.085Z,9.52
2019-03-26T16:12:58.709Z,9.51
2019-03-26T16:15:27.382Z,9.47
2019-03-26T16:17:56.089Z,9.43
2019-03-26T16:20:24.760Z,9.38
2019-03-26T16:22:53.507Z,9.36
2019-03-26T16:25:25.093Z,9.31
2019-03-26T16:27:53.878Z,9.29
2019-03-26T16:30:22.564Z,9.26
2019-03-26T16:32:51.388Z,9.23
2019-03-26T16:35:20.236Z,9.23
2019-03-26T16:37:49.056Z,9.17
2019-03-26T16:40:20.581Z,9.13
2019-03-26T16:42:49.356Z,9.10
2019-03-26T16:45:18.155Z,9.02
2019-03-26T16:47:46.965Z,9.00
2019-03-26T16:50:15.873Z,9.00
2019-03-26T16:52:44.778Z,8.96
2019-03-26T16:55:16.613Z,8.99
2019-03-26T16:57:48.187Z,9.00
2019-03-26T17:00:19.833Z,9.00
2019-03-26T17:02:51.528Z,9.02
2019-03-26T17:05:23.198Z,9.06
2019-03-26T17:07:55.099Z,9.13
2019-03-26T17:10:24.155Z,9.18
2019-03-26T17:12:53.178Z,9.23
2019-03-26T17:15:22.268Z,9.20
2019-03-26T17:17:51.169Z,9.15
2019-03-26T17:20:23.754Z,9.00
2019-03-26T17:22:51.229Z,8.90
2019-03-26T17:25:20.305Z,8.79
2019-03-26T17:27:49.127Z,8.67
2019-03-26T17:30:21.113Z,8.59
2019-03-26T17:32:50.068Z,8.50
2019-03-26T17:35:19.178Z,8.45
2019-03-26T17:37:59.011Z,8.41
2019-03-26T17:40:19.050Z,8.39
2019-03-26T17:42:47.878Z,8.30
2019-03-26T17:45:16.986Z,8.27
2019-03-26T17:47:46.037Z,8.23
2019-03-26T17:50:15.530Z,8.20
2019-03-26T17:52:44.715Z,8.18
2019-03-26T17:55:14.284Z,8.12
2019-03-26T17:57:43.366Z,8.11
2019-03-26T18:00:15.879Z,8.11
2019-03-26T18:02:44.964Z,8.09
2019-03-26T18:05:28.438Z,8.12
2019-03-26T18:07:57.721Z,8.14
2019-03-26T18:10:26.737Z,8.13
2019-03-26T18:12:55.987Z,8.21
2019-03-26T18:15:25.058Z,8.22
2019-03-26T18:17:54.063Z,8.27
2019-03-26T18:20:32.521Z,8.34
2019-03-26T18:22:54.063Z,8.38
2019-03-26T18:25:23.116Z,8.40
2019-03-26T18:27:52.122Z,8.44
2019-03-26T18:30:22.633Z,8.38
2019-03-26T18:32:51.639Z,8.43
2019-03-26T18:35:20.643Z,8.40
2019-03-26T18:37:49.847Z,8.42
2019-03-26T18:40:19.061Z,8.43
2019-03-26T18:42:48.334Z,8.42
2019-03-26T18:45:17.427Z,8.43
2019-03-26T18:47:46.484Z,8.47
2019-03-26T18:50:15.798Z,8.52
2019-03-26T18:52:48.032Z,8.51
2019-03-26T18:55:17.214Z,8.51
2019-03-26T18:57:46.363Z,8.50
2019-03-26T19:00:21.155Z,8.51
2019-03-26T19:02:50.172Z,8.45
2019-03-26T19:05:19.200Z,8.49
2019-03-26T19:07:48.342Z,8.53
2019-03-26T19:10:29.060Z,8.57
2019-03-26T19:12:58.162Z,8.52
2019-03-26T19:15:27.249Z,8.52
2019-03-26T19:18:03.447Z,8.46
2019-03-26T19:20:32.618Z,8.45
2019-03-26T19:23:01.635Z,8.48
2019-03-26T19:25:32.211Z,8.54
2019-03-26T19:28:01.288Z,8.56
2019-03-26T19:30:30.304Z,8.57
2019-03-26T19:33:00.769Z,8.58
2019-03-26T19:35:29.929Z,8.60
2019-03-26T19:37:59.058Z,8.60
2019-03-26T19:40:28.270Z,8.60
2019-03-26T19:43:09.755Z,8.52
2019-03-26T19:45:28.292Z,8.55
2019-03-26T19:48:00.638Z,8.55
2019-03-26T19:50:29.684Z,8.51
2019-03-26T19:52:58.777Z,8.55
2019-03-26T19:55:27.951Z,8.54
2019-03-26T19:57:59.072Z,8.60
2019-03-26T20:00:28.236Z,8.60
2019-03-26T20:02:57.405Z,8.64
2019-03-26T20:05:26.490Z,8.68
2019-03-26T20:07:55.546Z,8.70
2019-03-26T20:10:24.881Z,8.75
2019-03-26T20:12:54.070Z,8.77
2019-03-26T20:15:23.790Z,8.81
2019-03-26T20:17:52.796Z,8.89
2019-03-26T20:20:21.924Z,9.12
2019-03-26T20:22:51.150Z,9.28
2019-03-26T20:25:20.307Z,9.31
2019-03-26T20:27:49.468Z,9.46
2019-03-26T20:30:19.030Z,9.52
2019-03-26T20:32:48.064Z,9.55
2019-03-26T20:35:17.090Z,9.61
2019-03-26T20:37:46.205Z,9.61
2019-03-26T20:40:15.635Z,9.57
2019-03-26T20:42:44.760Z,9.62
2019-03-26T20:45:14.695Z,9.59
2019-03-26T20:47:43.742Z,9.59
2019-03-26T20:50:13.274Z,9.60
2019-03-26T20:52:42.351Z,9.59
2019-03-26T20:55:13.063Z,9.56
2019-03-26T20:57:42.183Z,9.51
2019-03-26T21:00:13.175Z,9.54
2019-03-26T21:02:42.221Z,9.57
2019-03-26T21:05:11.606Z,9.67
2019-03-26T21:07:40.664Z,9.70
2019-03-26T21:10:09.873Z,9.77
2019-03-26T21:12:38.610Z,9.82
2019-03-26T21:15:09.408Z,9.85
2019-03-26T21:17:38.717Z,9.83
2019-03-26T21:20:11.214Z,9.85
2019-03-26T21:22:40.231Z,9.85
2019-03-26T21:25:09.847Z,9.86
2019-03-26T21:27:38.885Z,9.93
2019-03-26T21:30:16.166Z,9.94
2019-03-26T21:32:45.235Z,9.91
2019-03-26T21:35:15.023Z,9.97
2019-03-26T21:37:43.931Z,9.93
2019-03-26T21:40:13.241Z,9.93
2019-03-26T21:42:41.981Z,9.91
2019-03-26T21:45:12.936Z,9.87
2019-03-26T21:47:41.620Z,9.86
2019-03-26T21:50:10.616Z,9.77
2019-03-26T21:52:39.331Z,9.78
2019-03-26T21:55:13.259Z,9.78
2019-03-26T21:57:40.290Z,9.77
2019-03-26T22:00:12.857Z,9.79
2019-03-26T22:02:41.527Z,9.77
2019-03-26T22:05:10.356Z,9.77
2019-03-26T22:07:39.053Z,9.74
2019-03-26T22:10:07.941Z,9.71
2019-03-26T22:12:36.565Z,9.71
2019-03-26T22:15:10.386Z,9.69
2019-03-26T22:17:39.088Z,9.72
2019-03-26T22:20:08.329Z,9.74
2019-03-26T22:22:36.937Z,9.76
2019-03-26T22:25:09.127Z,9.80
2019-03-26T22:27:37.712Z,9.81
2019-03-26T22:30:09.330Z,9.81
2019-03-26T22:32:37.939Z,9.75
2019-03-26T22:35:08.341Z,9.73
2019-03-26T22:37:36.976Z,9.68
2019-03-26T22:40:07.916Z,9.66
2019-03-26T22:42:36.538Z,9.63
2019-03-26T22:45:09.726Z,9.58
2019-03-26T22:47:39.609Z,9.57
2019-03-26T22:50:09.046Z,9.60
2019-03-26T22:52:37.689Z,9.65
2019-03-26T22:55:08.826Z,9.71
2019-03-26T22:57:38.360Z,9.76
2019-03-26T23:00:15.846Z,9.78
2019-03-26T23:02:44.477Z,9.78
2019-03-26T23:05:14.206Z,9.75
2019-03-26T23:07:42.775Z,9.73
2019-03-26T23:10:12.557Z,9.75
2019-03-26T23:12:41.157Z,9.74
2019-03-26T23:15:15.256Z,9.76
2019-03-26T23:17:43.942Z,9.75
2019-03-26T23:20:12.567Z,9.75
2019-03-26T23:22:41.128Z,9.71
2019-03-26T23:25:09.907Z,9.63
2019-03-26T23:27:38.394Z,9.56
2019-03-26T23:30:07.966Z,9.44
2019-03-26T23:32:36.537Z,9.39
2019-03-26T23:35:05.167Z,9.34
2019-03-26T23:37:33.809Z,9.30
2019-03-26T23:40:02.395Z,9.26
2019-03-26T23:42:30.892Z,9.26
2019-03-26T23:44:59.580Z,9.25
2019-03-26T23:47:28.137Z,9.26
2019-03-26T23:49:56.693Z,9.26
2019-03-26T23:52:25.379Z,9.27
2019-03-26T23:54:53.942Z,9.30
2019-03-26T23:57:22.430Z,9.31
2019-03-26T23:59:50.943Z,9.31
